Time;durP1;ratioP1;P1;durP2;ratioP2;P2;SDS_P1;SDS_P2;PMS_P1;PMS_P2;Temp;Humidity;BMP_temperature;BMP_pressure;BME280_temperature;BME280_humidity;BME280_pressure;Samples;Min_cycle;Max_cycle;Signal;HPM_P1;HPM_P2
2022/01/14 00:00:44;;;;;;;76.75;38.45;;;-0.20;99.90;;;;;;6123988;23;20005;-85
2022/01/14 00:03:11;;;;;;;84.07;39.25;;;-0.20;99.90;;;;;;6124045;23;20005;-86
2022/01/14 00:05:37;;;;;;;118.22;38.20;;;-0.20;99.90;;;;;;6097966;23;20033;-86
2022/01/14 00:08:04;;;;;;;110.57;37.55;;;-0.20;99.90;;;;;;6125378;23;20441;-86
2022/01/14 00:10:31;;;;;;;90.07;38.65;;;-0.30;99.90;;;;;;6124599;23;20357;-85
2022/01/14 00:13:06;;;;;;;76.60;38.35;;;0.20;99.90;;;;;;6124705;23;20006;-86
2022/01/14 00:15:35;;;;;;;83.97;38.05;;;0.10;99.90;;;;;;6124761;23;20282;-86
2022/01/14 00:18:01;;;;;;;100.20;35.55;;;-0.40;99.90;;;;;;6124042;23;20504;-86
2022/01/14 00:20:27;;;;;;;79.95;36.08;;;-0.40;99.90;;;;;;6124448;23;20017;-85
2022/01/14 00:22:52;;;;;;;166.52;39.45;;;0.30;99.90;;;;;;6124672;23;20006;-86
2022/01/14 00:33:29;;;;;;;124.78;40.40;;;-0.40;99.90;;;;;;6123702;23;20081;-85
2022/01/14 00:35:54;;;;;;;97.75;40.67;;;-0.30;99.90;;;;;;6124124;23;20452;-85
2022/01/14 00:38:20;;;;;;;99.82;44.42;;;-0.30;99.90;;;;;;6125155;23;20014;-86
2022/01/14 00:40:46;;;;;;;140.07;44.88;;;-0.30;99.90;;;;;;6124301;23;20016;-86
2022/01/14 00:43:12;;;;;;;101.18;42.20;;;-0.20;99.90;;;;;;6124607;23;20076;-86
2022/01/14 00:45:39;;;;;;;124.00;43.70;;;-0.20;99.90;;;;;;6123906;23;20010;-85
2022/01/14 00:48:04;;;;;;;96.80;42.13;;;-0.10;99.90;;;;;;6123414;23;20014;-86
2022/01/14 00:50:30;;;;;;;111.53;44.42;;;-0.10;99.90;;;;;;6124760;23;20029;-86
2022/01/14 00:52:56;;;;;;;122.30;43.80;;;-0.10;99.90;;;;;;6125077;23;20077;-85
2022/01/14 00:55:28;;;;;;;101.93;42.75;;;-0.10;99.90;;;;;;6123961;23;20373;-85
2022/01/14 01:00:35;;;;;;;99.18;42.92;;;-0.30;99.90;;;;;;6124451;23;20010;-86
2022/01/14 01:03:02;;;;;;;137.70;42.70;;;-0.20;99.90;;;;;;6124636;23;20030;-86
2022/01/14 01:05:28;;;;;;;140.10;42.75;;;-0.10;99.90;;;;;;6123407;23;20344;-85
2022/01/14 01:08:04;;;;;;;114.70;43.03;;;-0.20;99.90;;;;;;6124038;23;20040;-86
2022/01/14 01:10:31;;;;;;;141.05;43.80;;;-0.20;99.90;;;;;;6125475;23;20010;-85
2022/01/14 01:13:05;;;;;;;110.40;42.10;;;0.10;99.90;;;;;;6123745;23;20017;-86
2022/01/14 01:15:31;;;;;;;243.63;43.55;;;0.30;99.90;;;;;;6123462;23;20022;-85
2022/01/14 01:17:57;;;;;;;122.40;43.30;;;-0.30;99.90;;;;;;6098122;23;20006;-86
2022/01/14 01:20:22;;;;;;;160.10;43.85;;;-0.30;99.90;;;;;;6124405;23;20140;-86
2022/01/14 01:22:53;;;;;;;122.18;41.00;;;-0.30;99.90;;;;;;6124637;23;20073;-86
2022/01/14 01:25:23;;;;;;;275.23;44.20;;;-0.40;99.90;;;;;;6124215;23;20341;-86
2022/01/14 01:27:50;;;;;;;227.60;44.67;;;0.20;99.90;;;;;;6123691;23;20002;-85
2022/01/14 01:30:48;;;;;;;160.77;40.63;;;-0.50;99.90;;;;;;6123842;23;20038;-86
2022/01/14 01:33:06;;;;;;;163.98;41.28;;;-0.40;99.90;;;;;;6124149;23;20006;-86
2022/01/14 01:35:33;;;;;;;300.33;42.53;;;-0.50;99.90;;;;;;6124763;23;20081;-86
2022/01/14 01:37:59;;;;;;;114.57;40.28;;;-0.70;99.90;;;;;;6124013;23;20341;-85
2022/01/14 01:40:27;;;;;;;150.77;41.08;;;-0.80;99.90;;;;;;6123565;23;20002;-85
2022/01/14 01:42:55;;;;;;;119.05;40.97;;;-0.60;99.90;;;;;;6123442;23;20012;-86
2022/01/14 01:45:24;;;;;;;173.38;37.55;;;-0.60;99.90;;;;;;6123504;23;20006;-85
2022/01/14 01:47:53;;;;;;;80.72;37.28;;;-0.70;99.90;;;;;;6123874;23;20364;-85
2022/01/14 01:50:24;;;;;;;123.78;36.60;;;-0.70;99.90;;;;;;6098343;23;20006;-86
2022/01/14 01:52:50;;;;;;;162.07;37.17;;;-1.00;99.90;;;;;;6124090;23;20014;-86
2022/01/14 01:55:17;;;;;;;117.85;36.80;;;-1.10;99.90;;;;;;6123461;23;20463;-85
2022/01/14 01:57:43;;;;;;;124.63;37.40;;;-0.90;99.90;;;;;;6125187;23;20006;-86
2022/01/14 02:00:11;;;;;;;98.93;36.35;;;-1.10;99.90;;;;;;6123087;23;20009;-85
2022/01/14 02:02:37;;;;;;;130.05;36.28;;;-1.10;99.90;;;;;;6123882;23;20036;-85
2022/01/14 02:05:04;;;;;;;101.18;34.67;;;-1.00;99.90;;;;;;6124463;23;19998;-85
2022/01/14 02:07:32;;;;;;;102.03;36.72;;;-1.10;99.90;;;;;;6124189;23;20437;-85
2022/01/14 02:09:58;;;;;;;85.40;35.20;;;-0.40;99.90;;;;;;6124319;23;20009;-86
2022/01/14 02:12:25;;;;;;;89.05;36.58;;;-1.10;99.90;;;;;;6124160;23;20010;-85
2022/01/14 02:14:56;;;;;;;95.38;34.92;;;-1.00;99.90;;;;;;6123543;23;20022;-86
2022/01/14 02:17:32;;;;;;;79.47;35.70;;;-1.00;99.90;;;;;;6098728;23;20057;-86
2022/01/14 02:23:00;;;;;;;78.43;34.85;;;-1.30;99.90;;;;;;6126754;23;20077;-86
2022/01/14 02:25:30;;;;;;;72.38;34.33;;;-1.30;99.90;;;;;;6125629;23;20016;-86
2022/01/14 02:28:00;;;;;;;71.88;33.60;;;-1.50;99.90;;;;;;6125328;23;20002;-85
2022/01/14 02:30:26;;;;;;;74.05;36.30;;;-1.60;99.90;;;;;;6125048;23;20006;-86
2022/01/14 02:32:52;;;;;;;70.38;35.42;;;-1.50;99.90;;;;;;6125542;23;20029;-86
2022/01/14 02:35:18;;;;;;;71.03;34.08;;;-1.90;99.90;;;;;;6125658;23;20014;-85
2022/01/14 02:37:44;;;;;;;69.78;34.50;;;-1.90;99.90;;;;;;6125483;23;19998;-85
2022/01/14 02:40:10;;;;;;;64.85;32.67;;;-1.80;99.90;;;;;;6125589;23;20053;-85
2022/01/14 02:42:36;;;;;;;67.55;32.92;;;-1.90;99.90;;;;;;6124621;23;20001;-85
2022/01/14 02:45:06;;;;;;;69.38;34.63;;;-1.70;99.90;;;;;;6125585;23;20061;-86
2022/01/14 02:47:32;;;;;;;68.93;34.45;;;-1.70;99.90;;;;;;6125319;23;20040;-85
2022/01/14 02:49:58;;;;;;;105.20;39.03;;;-1.70;99.90;;;;;;6125419;23;20002;-86
2022/01/14 02:52:41;;;;;;;80.45;38.28;;;-1.70;99.90;;;;;;6125570;23;20009;-86
2022/01/14 02:55:17;;;;;;;68.38;35.17;;;-1.70;99.90;;;;;;6124937;23;20441;-86
2022/01/14 02:57:52;;;;;;;77.45;39.50;;;-1.60;99.90;;;;;;6098941;23;20101;-86
2022/01/14 03:00:20;;;;;;;73.97;36.47;;;-1.50;99.90;;;;;;6125300;23;20038;-85
2022/01/14 03:02:48;;;;;;;76.50;38.50;;;-1.40;99.90;;;;;;6125536;23;20006;-86
2022/01/14 03:05:15;;;;;;;86.22;38.60;;;-1.40;99.90;;;;;;6124979;23;20438;-86
2022/01/14 03:07:42;;;;;;;78.43;37.63;;;-1.50;99.90;;;;;;6125886;23;20451;-85
2022/01/14 03:10:09;;;;;;;77.45;39.42;;;-1.50;99.90;;;;;;6124815;23;20002;-86
2022/01/14 03:12:35;;;;;;;80.40;37.65;;;-1.50;99.90;;;;;;6124063;23;20342;-86
2022/01/14 03:15:02;;;;;;;83.43;37.65;;;-1.30;99.90;;;;;;6125155;23;20385;-86
2022/01/14 03:17:29;;;;;;;79.43;39.47;;;-1.20;99.90;;;;;;6124135;23;20353;-86
2022/01/14 03:19:55;;;;;;;80.88;38.97;;;-1.20;99.90;;;;;;6125823;23;20013;-86
2022/01/14 03:22:27;;;;;;;82.38;39.17;;;-1.00;99.90;;;;;;6125622;23;20002;-86
2022/01/14 03:27:19;;;;;;;82.60;40.38;;;-1.00;99.90;;;;;;6124877;23;20040;-86
2022/01/14 03:29:45;;;;;;;94.03;39.60;;;-1.10;99.90;;;;;;6124470;23;20006;-85
2022/01/14 03:32:10;;;;;;;117.10;42.03;;;-1.10;99.90;;;;;;6126085;23;20013;-85
2022/01/14 03:34:37;;;;;;;92.65;42.92;;;-1.10;99.90;;;;;;6125238;23;20017;-86
2022/01/14 03:37:03;;;;;;;97.07;42.03;;;-1.10;99.90;;;;;;6125108;23;20073;-85
2022/01/14 03:39:29;;;;;;;94.53;42.33;;;-1.00;99.90;;;;;;6125184;23;20010;-85
2022/01/14 03:41:55;;;;;;;115.55;44.75;;;-1.00;99.90;;;;;;6124915;23;20024;-85
2022/01/14 03:44:20;;;;;;;85.05;41.20;;;-1.00;99.90;;;;;;6124412;23;20061;-85
2022/01/14 03:46:46;;;;;;;101.65;40.63;;;-1.10;99.90;;;;;;6124972;23;20009;-85
2022/01/14 03:49:12;;;;;;;111.22;40.53;;;-1.20;99.90;;;;;;6125344;23;20329;-85
2022/01/14 03:51:38;;;;;;;87.95;39.53;;;-1.20;99.90;;;;;;6125535;23;20002;-85
2022/01/14 03:54:04;;;;;;;87.38;39.60;;;-1.20;99.90;;;;;;6123941;23;20021;-86
2022/01/14 03:56:31;;;;;;;99.13;41.58;;;-1.10;99.90;;;;;;6125154;23;19998;-86
2022/01/14 03:58:56;;;;;;;89.18;40.40;;;-1.00;99.90;;;;;;6124356;23;20081;-85
2022/01/14 04:01:22;;;;;;;88.45;39.47;;;-1.10;99.90;;;;;;6124542;23;20045;-85
2022/01/14 04:03:50;;;;;;;85.20;40.75;;;-1.10;99.90;;;;;;6124624;23;20033;-86
2022/01/14 04:06:16;;;;;;;98.20;41.00;;;-1.10;99.90;;;;;;6124333;23;20009;-85
2022/01/14 04:08:43;;;;;;;97.03;41.00;;;-1.00;99.90;;;;;;6123970;23;20024;-85
2022/01/14 04:11:10;;;;;;;86.68;39.22;;;-0.90;99.90;;;;;;6124458;23;20030;-85
2022/01/14 04:13:47;;;;;;;92.22;40.85;;;-0.90;99.90;;;;;;6123777;23;20061;-85
2022/01/14 04:16:14;;;;;;;95.68;41.08;;;-1.00;99.90;;;;;;6125146;23;20337;-85
2022/01/14 04:18:40;;;;;;;90.90;40.17;;;-1.10;99.90;;;;;;6124571;23;19998;-86
2022/01/14 04:21:06;;;;;;;91.63;39.10;;;-1.00;99.90;;;;;;6124761;23;20016;-86
2022/01/14 04:23:31;;;;;;;175.93;42.20;;;-1.00;99.90;;;;;;6124111;23;20073;-85
2022/01/14 04:25:57;;;;;;;594.08;50.97;;;-0.90;99.90;;;;;;6123687;23;20002;-85
2022/01/14 04:28:25;;;;;;;144.30;42.20;;;-0.90;99.90;;;;;;6124220;23;20013;-85
2022/01/14 04:30:54;;;;;;;100.25;42.17;;;-0.90;99.90;;;;;;6124262;23;20002;-86
2022/01/14 04:33:25;;;;;;;98.13;41.20;;;-1.00;99.90;;;;;;6124571;23;20457;-85
2022/01/14 04:35:51;;;;;;;88.57;41.35;;;-0.90;99.90;;;;;;6124914;23;20033;-85
2022/01/14 04:38:17;;;;;;;90.40;41.03;;;-0.80;99.90;;;;;;6123853;23;19998;-85
2022/01/14 04:40:43;;;;;;;91.13;42.13;;;-0.80;99.90;;;;;;6124253;23;20016;-85
2022/01/14 04:43:09;;;;;;;163.30;43.00;;;-0.90;99.90;;;;;;6124403;23;20061;-86
2022/01/14 04:48:03;;;;;;;102.22;41.97;;;-1.00;99.90;;;;;;6123880;23;20018;-86
2022/01/14 04:50:28;;;;;;;92.60;41.05;;;-1.00;99.90;;;;;;6124789;23;20433;-86
2022/01/14 04:52:54;;;;;;;87.28;41.58;;;-1.10;99.90;;;;;;6123811;23;20052;-85
2022/01/14 04:55:25;;;;;;;160.43;41.33;;;-1.00;99.90;;;;;;6124806;23;20045;-85
2022/01/14 04:57:52;;;;;;;147.93;40.75;;;-1.00;99.90;;;;;;6123544;23;20031;-85
2022/01/14 05:00:23;;;;;;;143.40;42.22;;;-1.50;99.90;;;;;;6124299;23;20006;-86
2022/01/14 05:02:51;;;;;;;91.38;40.45;;;-1.30;99.90;;;;;;6124038;23;20044;-85
2022/01/14 05:05:20;;;;;;;93.97;41.83;;;-1.10;99.90;;;;;;6123734;23;20038;-85
2022/01/14 05:07:47;;;;;;;92.18;41.22;;;-1.10;99.90;;;;;;6124772;23;20016;-86
2022/01/14 05:12:41;;;;;;;94.15;41.95;;;-0.90;99.90;;;;;;6123108;23;20033;-85
2022/01/14 05:15:07;;;;;;;106.45;43.92;;;-1.00;99.90;;;;;;6123901;23;20460;-85
2022/01/14 05:17:34;;;;;;;89.78;41.42;;;-1.00;99.90;;;;;;6124319;23;20077;-85
2022/01/14 05:19:59;;;;;;;96.05;42.42;;;-1.00;99.90;;;;;;6123581;23;20033;-85
2022/01/14 05:22:26;;;;;;;98.43;44.13;;;-0.90;99.90;;;;;;6124116;23;20425;-86
2022/01/14 05:24:51;;;;;;;96.18;42.72;;;-0.80;99.90;;;;;;6123947;23;20009;-85
2022/01/14 05:27:17;;;;;;;105.35;42.42;;;-0.90;99.90;;;;;;6123880;23;20040;-86
2022/01/14 05:29:43;;;;;;;99.05;41.53;;;-0.90;99.90;;;;;;6124502;23;20048;-85
2022/01/14 05:32:12;;;;;;;89.93;41.97;;;-1.00;99.90;;;;;;6124096;23;20437;-86
2022/01/14 05:34:40;;;;;;;85.18;40.63;;;-1.10;99.90;;;;;;6123368;23;20386;-85
2022/01/14 05:37:07;;;;;;;86.15;40.95;;;-1.30;99.90;;;;;;6122552;23;20010;-86
2022/01/14 05:39:33;;;;;;;99.57;41.42;;;-1.10;99.90;;;;;;6124399;23;20009;-86
2022/01/14 05:42:00;;;;;;;94.20;41.88;;;-1.20;99.90;;;;;;6123449;23;20432;-86
2022/01/14 05:44:27;;;;;;;91.40;40.85;;;-1.20;99.90;;;;;;6124728;23;20099;-85
2022/01/14 05:46:54;;;;;;;123.53;40.58;;;-1.30;99.90;;;;;;6123934;23;20084;-85
2022/01/14 05:49:20;;;;;;;103.20;41.67;;;-1.60;99.90;;;;;;6123480;23;20002;-85
2022/01/14 05:51:46;;;;;;;103.15;41.35;;;-1.60;99.90;;;;;;6125180;23;20429;-85
2022/01/14 05:54:13;;;;;;;91.78;43.38;;;-1.40;99.90;;;;;;6125936;23;20081;-85
2022/01/14 05:56:38;;;;;;;94.38;42.15;;;-1.30;99.90;;;;;;6125334;23;20009;-85
2022/01/14 05:59:04;;;;;;;96.38;41.90;;;-1.30;99.90;;;;;;6125823;23;20010;-85
2022/01/14 06:01:33;;;;;;;87.20;43.05;;;-1.20;99.90;;;;;;6126076;23;20009;-85
2022/01/14 06:03:59;;;;;;;90.10;41.88;;;-1.10;99.90;;;;;;6125081;23;20010;-85
2022/01/14 06:06:25;;;;;;;101.38;42.45;;;-1.00;99.90;;;;;;6126215;23;20010;-85
2022/01/14 06:08:51;;;;;;;90.68;41.55;;;-1.10;99.90;;;;;;6125898;23;20013;-85
2022/01/14 06:11:17;;;;;;;99.63;40.10;;;-1.20;99.90;;;;;;6125209;23;20006;-85
2022/01/14 06:13:43;;;;;;;90.32;40.28;;;-1.20;99.90;;;;;;6125802;23;20037;-85
2022/01/14 06:16:09;;;;;;;174.05;40.92;;;-1.30;99.90;;;;;;6125496;23;20349;-85
2022/01/14 06:18:35;;;;;;;95.00;39.92;;;-1.40;99.90;;;;;;6125000;23;20002;-85
2022/01/14 06:21:00;;;;;;;159.70;41.58;;;-1.40;99.90;;;;;;6125242;23;20149;-84
2022/01/14 06:23:26;;;;;;;121.45;41.15;;;-1.70;99.90;;;;;;6125901;23;20038;-86
2022/01/14 06:25:52;;;;;;;130.30;39.85;;;-1.60;99.90;;;;;;6124731;23;20006;-85
2022/01/14 06:28:18;;;;;;;104.55;41.00;;;-1.60;99.90;;;;;;6126131;23;20086;-85
2022/01/14 06:30:44;;;;;;;119.88;42.17;;;-1.60;99.90;;;;;;6099462;23;20069;-84
2022/01/14 06:33:09;;;;;;;124.65;42.67;;;-1.40;99.90;;;;;;6124617;23;20429;-84
2022/01/14 06:35:35;;;;;;;93.07;41.92;;;-1.40;99.90;;;;;;6099261;23;20048;-84
2022/01/14 06:38:01;;;;;;;94.95;43.78;;;-0.70;99.90;;;;;;6125804;23;20451;-86
2022/01/14 06:40:29;;;;;;;95.40;43.45;;;-1.30;99.90;;;;;;6126519;23;20009;-86
2022/01/14 06:42:54;;;;;;;100.15;44.42;;;-1.20;99.90;;;;;;6125760;23;20354;-83
2022/01/14 06:45:21;;;;;;;112.63;46.25;;;-1.10;99.90;;;;;;6125897;23;20052;-83
2022/01/14 06:47:47;;;;;;;110.03;43.67;;;-1.20;99.90;;;;;;6124471;23;20037;-83
2022/01/14 06:50:13;;;;;;;155.13;42.15;;;-1.30;99.90;;;;;;6126778;23;20073;-87
2022/01/14 06:52:38;;;;;;;104.00;41.67;;;-1.40;99.90;;;;;;6125435;23;19998;-87
2022/01/14 06:55:05;;;;;;;185.38;43.78;;;-1.40;99.90;;;;;;6125500;23;20069;-86
2022/01/14 06:57:31;;;;;;;96.80;43.63;;;-1.50;99.90;;;;;;6098720;23;20341;-87
2022/01/14 06:59:57;;;;;;;96.95;42.35;;;-1.40;99.90;;;;;;6099582;23;20006;-87
2022/01/14 07:02:22;;;;;;;87.65;40.17;;;-1.40;99.90;;;;;;6124495;23;20006;-86
2022/01/14 07:04:48;;;;;;;86.90;40.95;;;-1.50;99.90;;;;;;6125389;23;20001;-84
2022/01/14 07:07:14;;;;;;;86.90;41.47;;;-1.80;99.90;;;;;;6098854;23;20010;-86
2022/01/14 07:09:56;;;;;;;87.63;40.90;;;-1.70;99.90;;;;;;6125258;23;20123;-86
2022/01/14 07:12:26;;;;;;;87.72;40.85;;;-1.60;99.90;;;;;;6124338;23;20006;-87
2022/01/14 07:14:53;;;;;;;87.72;41.25;;;-1.60;99.90;;;;;;6124896;23;20013;-86
2022/01/14 07:17:20;;;;;;;92.53;39.83;;;-1.50;99.90;;;;;;6098144;23;20029;-86
2022/01/14 07:19:46;;;;;;;81.57;39.53;;;-1.50;99.90;;;;;;6125188;23;20132;-87
2022/01/14 07:22:13;;;;;;;89.10;41.00;;;-1.50;99.90;;;;;;6125603;23;19998;-86
2022/01/14 07:24:38;;;;;;;84.93;40.25;;;-1.40;99.90;;;;;;6125460;23;20006;-86
2022/01/14 07:27:04;;;;;;;86.40;40.90;;;-1.40;99.90;;;;;;6124467;23;20429;-86
2022/01/14 07:29:30;;;;;;;87.88;41.33;;;-1.40;99.90;;;;;;6124840;23;20010;-87
2022/01/14 07:31:56;;;;;;;96.00;41.90;;;-1.40;99.90;;;;;;6124398;23;20073;-86
2022/01/14 07:34:21;;;;;;;93.97;41.80;;;-1.40;99.90;;;;;;6126051;23;20045;-86
2022/01/14 07:36:47;;;;;;;94.47;41.70;;;-1.30;99.90;;;;;;6124564;23;20002;-86
2022/01/14 07:39:12;;;;;;;91.63;42.08;;;-1.20;99.90;;;;;;6124607;23;20006;-86
2022/01/14 07:41:38;;;;;;;94.05;42.80;;;-1.50;99.90;;;;;;6124918;23;20117;-87
2022/01/14 07:44:04;;;;;;;87.05;40.55;;;-1.50;99.90;;;;;;6124639;23;20461;-87
2022/01/14 07:46:30;;;;;;;94.63;43.25;;;-1.50;99.90;;;;;;6097588;23;20009;-86
2022/01/14 07:48:56;;;;;;;98.97;42.65;;;-1.50;99.90;;;;;;6125099;23;20089;-86
2022/01/14 07:51:21;;;;;;;92.40;43.47;;;-1.40;99.90;;;;;;6124406;23;20030;-86
2022/01/14 07:53:47;;;;;;;93.82;42.83;;;-1.50;99.90;;;;;;6124511;23;20050;-86
2022/01/14 07:56:13;;;;;;;98.65;42.80;;;-1.30;99.90;;;;;;6124287;23;20009;-86
2022/01/14 07:58:41;;;;;;;90.28;42.05;;;-1.30;99.90;;;;;;6124511;23;20009;-87
2022/01/14 08:01:07;;;;;;;92.13;40.47;;;-1.20;99.90;;;;;;6124700;23;20006;-86
2022/01/14 08:03:33;;;;;;;97.82;42.45;;;-1.00;99.90;;;;;;6124975;23;20006;-86
2022/01/14 08:06:00;;;;;;;99.25;42.42;;;-0.90;99.90;;;;;;6123836;23;20039;-87
2022/01/14 08:08:28;;;;;;;85.15;41.80;;;-0.90;99.90;;;;;;6124429;23;20006;-83
2022/01/14 08:10:54;;;;;;;86.47;39.95;;;-1.20;99.90;;;;;;6125020;23;20006;-86
2022/01/14 08:13:20;;;;;;;90.80;40.55;;;-1.30;99.90;;;;;;6124347;23;20006;-86
2022/01/14 08:15:45;;;;;;;96.05;40.92;;;-1.20;99.90;;;;;;6123536;23;20077;-87
2022/01/14 08:18:11;;;;;;;100.30;43.80;;;-1.10;99.90;;;;;;6123868;23;20399;-88
2022/01/14 08:20:37;;;;;;;108.82;45.05;;;-1.10;99.90;;;;;;6124838;23;20006;-88
2022/01/14 08:23:02;;;;;;;92.18;42.15;;;-1.00;99.90;;;;;;6124423;23;20013;-88
2022/01/14 08:25:28;;;;;;;88.15;41.63;;;-0.70;99.90;;;;;;6123186;23;20089;-88
2022/01/14 08:27:54;;;;;;;86.38;41.75;;;-0.70;99.90;;;;;;6124911;23;20009;-87
2022/01/14 08:30:20;;;;;;;90.60;43.78;;;0.30;99.90;;;;;;6123656;23;20497;-87
2022/01/14 08:32:45;;;;;;;85.82;41.47;;;1.60;99.90;;;;;;6124486;23;20081;-87
2022/01/14 08:35:11;;;;;;;75.40;39.25;;;4.00;99.90;;;;;;6124141;23;20057;-87
2022/01/14 08:37:38;;;;;;;75.65;38.53;;;5.10;88.70;;;;;;6124482;23;20310;-87
2022/01/14 08:40:06;;;;;;;69.32;35.55;;;8.10;56.30;;;;;;6124210;23;20009;-87
2022/01/14 08:42:33;;;;;;;63.55;35.05;;;9.30;39.30;;;;;;6122915;23;20002;-86
2022/01/14 08:44:58;;;;;;;64.38;35.05;;;10.40;27.70;;;;;;6123125;23;20012;-87
2022/01/14 08:47:24;;;;;;;60.17;33.03;;;10.60;24.30;;;;;;6124479;23;20045;-87
2022/01/14 08:49:50;;;;;;;58.17;33.75;;;11.40;19.50;;;;;;6124867;23;20005;-87
2022/01/14 08:52:16;;;;;;;59.17;34.47;;;11.20;20.70;;;;;;6098532;23;20345;-89
2022/01/14 08:54:42;;;;;;;59.20;34.13;;;12.20;11.50;;;;;;6123066;23;20013;-87
2022/01/14 08:57:08;;;;;;;58.22;34.63;;;12.90;6.80;;;;;;6124578;23;19998;-87
2022/01/14 08:59:33;;;;;;;56.40;34.00;;;13.40;3.40;;;;;;6122931;23;20451;-87
2022/01/14 09:01:59;;;;;;;57.53;34.65;;;13.60;1.00;;;;;;6123816;23;20042;-88
2022/01/14 09:04:25;;;;;;;58.28;36.42;;;14.00;1.00;;;;;;6124509;23;20421;-88
2022/01/14 09:06:51;;;;;;;64.25;38.88;;;13.90;1.00;;;;;;6124025;23;20040;-87
2022/01/14 09:09:17;;;;;;;66.50;40.92;;;13.80;1.00;;;;;;6123077;23;20009;-88
2022/01/14 09:11:43;;;;;;;64.72;39.75;;;13.80;1.00;;;;;;6122995;23;20389;-89
2022/01/14 09:14:09;;;;;;;67.53;42.00;;;14.30;1.00;;;;;;6123440;23;20088;-87
2022/01/14 09:16:35;;;;;;;66.00;42.80;;;14.80;1.00;;;;;;6123983;23;20029;-86
2022/01/14 09:19:01;;;;;;;69.47;44.20;;;14.90;1.00;;;;;;6123451;23;20005;-88
2022/01/14 09:21:27;;;;;;;74.20;49.65;;;15.60;1.00;;;;;;6123891;23;20010;-87
2022/01/14 09:24:05;;;;;;;76.93;49.63;;;14.90;1.00;;;;;;6124290;23;20034;-88
2022/01/14 09:26:36;;;;;;;65.90;43.22;;;15.20;1.00;;;;;;6125324;23;20034;-89
2022/01/14 09:29:04;;;;;;;67.18;46.15;;;15.30;1.00;;;;;;6126065;23;20428;-88
2022/01/14 09:31:30;;;;;;;68.72;43.63;;;15.80;1.00;;;;;;6125981;23;20021;-88
2022/01/14 09:33:56;;;;;;;63.08;44.13;;;16.20;1.00;;;;;;6126552;23;20017;-88
2022/01/14 09:36:22;;;;;;;66.28;43.85;;;16.30;1.00;;;;;;6126611;23;20006;-91
2022/01/14 09:38:49;;;;;;;65.20;45.45;;;16.10;1.00;;;;;;6125771;23;20452;-87
2022/01/14 09:41:17;;;;;;;67.13;44.65;;;16.60;1.00;;;;;;6125490;23;20009;-88
2022/01/14 09:43:44;;;;;;;64.82;44.17;;;16.30;1.00;;;;;;6126361;23;20073;-89
2022/01/14 09:46:11;;;;;;;63.42;44.80;;;17.20;1.00;;;;;;6125681;23;20013;-88
2022/01/14 09:48:38;;;;;;;66.32;44.80;;;17.80;1.00;;;;;;6099690;23;20352;-87
2022/01/14 09:51:04;;;;;;;66.47;46.00;;;17.70;1.00;;;;;;6125881;23;20072;-89
2022/01/14 09:53:31;;;;;;;69.32;47.40;;;18.00;1.00;;;;;;6125957;23;20061;-88
2022/01/14 09:55:58;;;;;;;66.35;47.05;;;17.80;1.00;;;;;;6125008;23;20018;-88
2022/01/14 09:58:25;;;;;;;67.03;44.70;;;17.50;1.00;;;;;;6099373;23;20006;-88
2022/01/14 10:00:50;;;;;;;62.88;46.38;;;16.30;1.00;;;;;;6099689;23;20029;-88
2022/01/14 10:03:21;;;;;;;67.25;47.70;;;16.80;1.00;;;;;;6125247;23;20049;-88
2022/01/14 10:05:52;;;;;;;65.53;45.97;;;17.30;1.00;;;;;;6126239;23;20437;-89
2022/01/14 10:08:24;;;;;;;60.10;42.58;;;17.70;1.00;;;;;;6125549;23;20022;-89
2022/01/14 10:10:55;;;;;;;62.13;44.88;;;17.60;1.00;;;;;;6124909;23;20010;-89
2022/01/14 10:13:26;;;;;;;59.40;42.35;;;18.40;1.00;;;;;;6100412;23;20500;-88
2022/01/14 10:16:00;;;;;;;58.00;44.35;;;18.20;1.00;;;;;;6125694;23;20010;-88
2022/01/14 10:18:26;;;;;;;54.63;41.33;;;18.20;1.00;;;;;;6125685;23;20009;-89
2022/01/14 10:20:57;;;;;;;52.60;39.58;;;18.50;1.00;;;;;;6125704;23;20010;-88
2022/01/14 10:23:42;;;;;;;54.67;41.35;;;17.30;1.00;;;;;;6126014;23;20068;-89
2022/01/14 10:26:08;;;;;;;50.88;39.15;;;17.90;1.00;;;;;;6125557;23;20014;-88
2022/01/14 10:28:34;;;;;;;50.20;39.28;;;17.40;1.00;;;;;;6125522;23;20358;-88
2022/01/14 10:31:01;;;;;;;47.90;37.78;;;18.00;1.00;;;;;;6125429;23;20081;-88
2022/01/14 10:33:29;;;;;;;47.17;37.05;;;17.50;1.00;;;;;;6125548;23;20337;-88
2022/01/14 10:35:55;;;;;;;45.17;35.53;;;17.20;1.00;;;;;;6126136;23;20033;-89
2022/01/14 10:38:23;;;;;;;48.10;38.08;;;17.30;1.00;;;;;;6125268;23;20002;-88
2022/01/14 10:40:51;;;;;;;49.17;37.03;;;18.30;1.00;;;;;;6124586;23;20010;-88
2022/01/14 10:43:22;;;;;;;47.45;37.67;;;19.30;1.00;;;;;;6125575;23;20009;-88
2022/01/14 10:45:49;;;;;;;47.50;36.70;;;18.70;1.00;;;;;;6099110;23;20043;-89
2022/01/14 10:48:25;;;;;;;44.35;36.17;;;17.90;1.00;;;;;;6125664;23;20065;-88
2022/01/14 10:50:59;;;;;;;46.65;37.15;;;18.60;1.00;;;;;;6125439;23;20028;-89
2022/01/14 10:53:29;;;;;;;50.50;38.95;;;19.70;1.00;;;;;;6123970;23;19998;-88
2022/01/14 10:56:02;;;;;;;46.83;37.00;;;19.50;1.00;;;;;;6125274;23;20005;-89
2022/01/14 10:58:31;;;;;;;47.30;38.03;;;18.90;1.00;;;;;;6125248;23;20001;-88
2022/01/14 11:01:05;;;;;;;47.72;38.97;;;19.40;1.00;;;;;;6125572;23;20013;-88
2022/01/14 11:03:40;;;;;;;49.40;39.80;;;19.80;1.00;;;;;;6125399;23;20029;-88
2022/01/14 11:06:16;;;;;;;51.70;40.65;;;18.80;1.00;;;;;;6099542;23;20010;-88
2022/01/14 11:08:42;;;;;;;53.63;42.53;;;19.50;1.00;;;;;;6123660;23;20009;-88
2022/01/14 11:11:08;;;;;;;55.70;42.97;;;19.30;1.00;;;;;;6099151;23;20006;-88
2022/01/14 11:13:34;;;;;;;58.00;45.28;;;19.30;1.00;;;;;;6124994;23;20009;-88
2022/01/14 11:16:00;;;;;;;57.20;44.38;;;18.50;1.00;;;;;;6124925;23;20010;-88
2022/01/14 11:18:27;;;;;;;56.22;44.45;;;18.30;1.00;;;;;;6125524;23;20343;-88
2022/01/14 11:23:37;;;;;;;48.33;39.83;;;18.70;1.00;;;;;;6124479;23;20060;-90
2022/01/14 11:26:06;;;;;;;53.25;43.17;;;17.70;1.00;;;;;;6127092;23;20006;-89
2022/01/14 11:28:35;;;;;;;52.90;41.03;;;17.60;1.00;;;;;;6126424;23;20006;-89
2022/01/14 11:31:21;;;;;;;49.03;39.58;;;18.10;1.00;;;;;;6127053;23;20029;-89
2022/01/14 11:33:46;;;;;;;48.33;39.22;;;17.80;1.00;;;;;;6126013;23;20021;-92
2022/01/14 11:36:12;;;;;;;48.13;39.95;;;17.50;1.00;;;;;;6098716;23;20452;-90
2022/01/14 11:38:47;;;;;;;47.13;39.33;;;17.50;1.00;;;;;;6125342;23;19998;-88
2022/01/14 11:41:19;;;;;;;47.13;38.58;;;18.30;1.00;;;;;;6126231;23;20026;-89
2022/01/14 11:43:48;;;;;;;50.30;40.88;;;18.30;1.00;;;;;;6099172;23;20325;-84
2022/01/14 11:46:35;;;;;;;49.40;39.83;;;18.20;1.00;;;;;;6126792;23;19986;-95
2022/01/14 11:49:01;;;;;;;53.72;41.47;;;18.70;1.00;;;;;;6098904;23;20361;-92
2022/01/14 11:51:27;;;;;;;54.55;42.58;;;19.30;1.00;;;;;;6101216;23;20467;-92
2022/01/14 11:54:03;;;;;;;51.92;42.53;;;19.30;1.00;;;;;;6125832;23;20041;-92
2022/01/14 11:56:32;;;;;;;58.45;43.40;;;18.80;1.00;;;;;;6099037;23;20010;-86
2022/01/14 11:59:22;;;;;;;58.42;44.47;;;18.80;1.00;;;;;;6124761;23;20005;-86
2022/01/14 12:01:50;;;;;;;59.45;45.25;;;18.30;1.00;;;;;;6125110;23;20089;-85
2022/01/14 12:04:16;;;;;;;53.35;44.88;;;18.50;1.00;;;;;;6125263;23;20012;-86
2022/01/14 12:06:51;;;;;;;52.67;43.03;;;18.90;1.00;;;;;;6123411;23;20430;-86
2022/01/14 12:09:18;;;;;;;52.22;43.35;;;19.00;1.00;;;;;;6123812;23;20010;-83
2022/01/14 12:11:44;;;;;;;63.97;47.40;;;17.30;1.00;;;;;;6123906;23;20081;-86
2022/01/14 12:14:11;;;;;;;53.65;43.97;;;17.50;1.00;;;;;;6096947;23;20494;-86
2022/01/14 12:16:47;;;;;;;49.25;41.08;;;17.80;1.00;;;;;;6123630;23;20002;-86
2022/01/14 12:19:16;;;;;;;56.65;43.97;;;17.80;1.00;;;;;;6124297;23;20034;-84
2022/01/14 12:21:48;;;;;;;54.45;42.72;;;17.60;1.00;;;;;;6123778;23;20002;-85
2022/01/14 12:24:27;;;;;;;62.92;45.53;;;16.80;1.00;;;;;;6123541;23;20030;-84
2022/01/14 12:26:52;;;;;;;53.20;43.17;;;16.30;1.00;;;;;;6125073;23;20012;-84
2022/01/14 12:29:39;;;;;;;58.40;44.95;;;16.20;1.00;;;;;;6124321;23;20398;-85
2022/01/14 12:32:13;;;;;;;53.85;42.10;;;16.40;1.00;;;;;;6123086;23;20001;-88
2022/01/14 12:34:44;;;;;;;54.53;40.88;;;16.90;1.00;;;;;;6129686;23;20014;-96
2022/01/14 12:37:15;;;;;;;49.53;40.95;;;16.60;1.00;;;;;;6100847;23;20033;-95
2022/01/14 12:39:42;;;;;;;46.58;39.28;;;16.30;1.00;;;;;;6100249;23;20006;-95
2022/01/14 12:42:09;;;;;;;48.88;39.35;;;16.30;1.00;;;;;;6126683;23;20009;-95
2022/01/14 12:44:43;;;;;;;50.35;41.13;;;17.10;1.00;;;;;;6126672;23;20002;-95
2022/01/14 12:47:09;;;;;;;52.28;41.25;;;16.00;1.00;;;;;;6127048;23;20085;-95
2022/01/14 12:49:40;;;;;;;51.20;41.25;;;16.70;1.00;;;;;;6126832;23;19994;-95
2022/01/14 12:52:11;;;;;;;48.13;40.25;;;16.30;1.00;;;;;;6126865;23;20055;-94
2022/01/14 12:54:43;;;;;;;48.95;41.42;;;17.40;1.00;;;;;;6100417;23;20042;-96